createdAt,value
2023-02-16T00:02:18.998Z,17.87
2023-02-16T00:05:42.623Z,20.73
2023-02-16T00:09:06.772Z,18.47
2023-02-16T00:12:48.979Z,20.10
2023-02-16T00:16:17.073Z,20.17
2023-02-16T00:19:42.781Z,22.10
2023-02-16T00:23:06.731Z,19.93
2023-02-16T00:26:33.865Z,20.87
2023-02-16T00:29:57.793Z,20.77
2023-02-16T00:33:25.494Z,21.47
2023-02-16T00:36:49.733Z,21.73
2023-02-16T00:40:17.019Z,19.10
2023-02-16T00:43:41.150Z,20.10
2023-02-16T00:47:13.974Z,21.00
2023-02-16T00:50:46.496Z,24.40
2023-02-16T00:54:10.027Z,21.80
2023-02-16T00:57:36.580Z,20.73
2023-02-16T01:01:09.293Z,21.27
2023-02-16T01:04:33.892Z,20.37
2023-02-16T01:08:19.016Z,20.27
2023-02-16T01:11:42.822Z,21.80
2023-02-16T01:15:11.089Z,21.27
2023-02-16T01:18:34.794Z,20.53
2023-02-16T01:21:58.796Z,21.23
2023-02-16T01:25:27.199Z,20.70
2023-02-16T01:28:51.938Z,19.67
2023-02-16T01:32:18.042Z,22.40
2023-02-16T01:35:42.064Z,23.90
2023-02-16T01:39:06.188Z,24.33
2023-02-16T01:42:37.899Z,22.27
2023-02-16T01:46:08.642Z,24.10
2023-02-16T01:49:33.204Z,20.87
2023-02-16T01:52:59.666Z,21.60
2023-02-16T01:56:31.533Z,24.50
2023-02-16T02:00:14.334Z,22.13
2023-02-16T02:03:57.102Z,24.07
2023-02-16T02:07:32.585Z,24.17
2023-02-16T02:11:06.502Z,24.40
2023-02-16T02:14:37.977Z,23.70
2023-02-16T02:18:03.451Z,21.53
2023-02-16T02:22:06.125Z,24.20
2023-02-16T02:26:16.134Z,21.70
2023-02-16T02:30:16.698Z,22.77
2023-02-16T02:33:54.781Z,23.03
2023-02-16T02:37:27.565Z,23.17
2023-02-16T02:41:01.308Z,22.83
2023-02-16T02:44:29.929Z,25.00
2023-02-16T02:47:55.976Z,23.10
2023-02-16T02:51:34.332Z,22.00
2023-02-16T02:55:21.918Z,22.17
2023-02-16T02:59:06.853Z,22.53
2023-02-16T03:02:33.139Z,24.23
2023-02-16T03:06:06.552Z,22.17
2023-02-16T03:09:31.048Z,21.27
2023-02-16T03:12:55.381Z,23.17
2023-02-16T03:16:25.929Z,21.80
2023-02-16T03:20:10.171Z,21.93
2023-02-16T03:23:55.192Z,22.73
2023-02-16T03:27:40.944Z,21.30
2023-02-16T03:31:07.378Z,24.40
2023-02-16T03:34:32.984Z,23.00
2023-02-16T03:37:56.566Z,23.70
2023-02-16T03:41:22.318Z,25.57
2023-02-16T03:44:48.359Z,24.57
2023-02-16T03:48:12.380Z,25.90
2023-02-16T03:51:36.077Z,22.73
2023-02-16T03:55:00.397Z,22.20
2023-02-16T03:58:25.974Z,24.43
2023-02-16T04:01:50.090Z,22.47
2023-02-16T04:05:13.993Z,22.50
2023-02-16T04:08:38.034Z,23.43
2023-02-16T04:12:20.224Z,20.83
2023-02-16T04:15:45.434Z,20.73
2023-02-16T04:19:11.382Z,22.20
2023-02-16T04:22:34.927Z,24.37
2023-02-16T04:25:58.990Z,23.37
2023-02-16T04:29:23.071Z,24.60
2023-02-16T04:32:50.579Z,25.53
2023-02-16T04:36:15.064Z,25.13
2023-02-16T04:39:40.372Z,24.93
2023-02-16T04:43:03.916Z,22.60
2023-02-16T04:46:28.151Z,22.67
2023-02-16T04:49:53.642Z,23.90
2023-02-16T04:53:18.108Z,25.13
2023-02-16T04:56:44.323Z,21.67
2023-02-16T05:00:11.578Z,23.60
2023-02-16T05:03:36.228Z,24.37
2023-02-16T05:07:01.572Z,24.40
2023-02-16T05:10:30.594Z,23.07
2023-02-16T05:14:14.468Z,20.90
2023-02-16T05:17:38.059Z,22.47
2023-02-16T05:21:20.315Z,23.40
2023-02-16T05:24:55.038Z,23.37
2023-02-16T05:28:21.805Z,25.33
2023-02-16T05:31:46.453Z,24.13
2023-02-16T05:35:10.110Z,22.40
2023-02-16T05:38:36.611Z,23.50
2023-02-16T05:42:02.552Z,22.20
2023-02-16T05:45:26.195Z,22.30
2023-02-16T05:48:50.151Z,22.43
2023-02-16T05:52:14.132Z,20.60
2023-02-16T05:55:40.340Z,24.17
2023-02-16T05:59:05.581Z,22.60
2023-02-16T06:02:29.421Z,21.20
2023-02-16T06:05:54.827Z,21.87
2023-02-16T06:09:19.159Z,21.50
2023-02-16T06:12:44.863Z,21.83
2023-02-16T06:16:10.640Z,21.60
2023-02-16T06:19:37.520Z,22.47
2023-02-16T06:23:01.154Z,22.20
2023-02-16T06:26:25.659Z,22.33
2023-02-16T06:29:50.242Z,23.50
2023-02-16T06:33:17.939Z,22.90
2023-02-16T06:36:42.920Z,22.93
2023-02-16T06:40:09.881Z,22.50
2023-02-16T06:43:36.758Z,19.23
2023-02-16T06:47:01.204Z,21.53
2023-02-16T06:50:26.663Z,23.03
2023-02-16T06:53:50.361Z,21.83
2023-02-16T06:57:14.177Z,23.40
2023-02-16T07:00:38.227Z,22.03
2023-02-16T07:04:09.574Z,22.77
2023-02-16T07:07:34.503Z,22.63
2023-02-16T07:10:58.222Z,22.90
2023-02-16T07:14:22.515Z,22.70
2023-02-16T07:17:46.261Z,24.33
2023-02-16T07:21:10.272Z,22.80
2023-02-16T07:24:35.724Z,24.17
2023-02-16T07:28:00.375Z,21.30
2023-02-16T07:31:28.341Z,21.10
2023-02-16T07:34:52.211Z,21.67
2023-02-16T07:38:16.220Z,20.37
2023-02-16T07:41:41.148Z,21.53
2023-02-16T07:45:05.884Z,22.20
2023-02-16T07:48:29.476Z,24.73
2023-02-16T07:51:53.210Z,21.60
2023-02-16T07:55:16.830Z,21.33
2023-02-16T07:58:42.316Z,20.50
2023-02-16T08:02:05.972Z,20.60
2023-02-16T08:05:29.962Z,21.50
2023-02-16T08:08:53.550Z,19.10
2023-02-16T08:12:18.127Z,21.70
2023-02-16T08:15:45.257Z,23.10
2023-02-16T08:19:11.064Z,18.83
2023-02-16T08:22:34.791Z,20.20
2023-02-16T08:25:59.037Z,20.13
2023-02-16T08:29:23.803Z,21.57
2023-02-16T08:32:50.823Z,19.17
2023-02-16T08:36:18.972Z,20.97
2023-02-16T08:39:42.828Z,20.10
2023-02-16T08:43:07.012Z,21.47
2023-02-16T08:46:32.409Z,20.67
2023-02-16T08:49:57.877Z,20.37
2023-02-16T08:53:22.996Z,19.83
2023-02-16T08:56:49.527Z,21.80
2023-02-16T09:00:31.847Z,20.60
2023-02-16T09:03:55.916Z,20.70
2023-02-16T09:07:22.191Z,23.03
2023-02-16T09:10:46.628Z,18.60
2023-02-16T09:14:12.406Z,19.20
2023-02-16T09:17:38.715Z,20.27
2023-02-16T09:21:06.741Z,20.63
2023-02-16T09:24:32.197Z,21.47
2023-02-16T09:27:56.847Z,20.10
2023-02-16T09:31:25.742Z,21.10
2023-02-16T09:34:50.105Z,22.17
2023-02-16T09:38:16.638Z,20.43
2023-02-16T09:42:04.801Z,20.53
2023-02-16T09:45:29.674Z,21.10
2023-02-16T09:48:53.840Z,21.60
2023-02-16T09:52:26.136Z,20.27
2023-02-16T09:55:59.507Z,20.10
2023-02-16T09:59:34.986Z,21.50
2023-02-16T10:03:05.428Z,21.00
2023-02-16T10:06:46.002Z,20.90
2023-02-16T10:10:14.736Z,20.80
2023-02-16T10:13:43.891Z,21.03
2023-02-16T10:17:23.931Z,21.93
2023-02-16T10:20:52.215Z,20.70
2023-02-16T10:24:16.309Z,21.10
2023-02-16T10:27:42.982Z,20.97
2023-02-16T10:31:17.754Z,21.67
2023-02-16T10:34:50.124Z,20.20
2023-02-16T10:38:20.050Z,20.97
2023-02-16T10:41:47.802Z,21.40
2023-02-16T10:45:21.433Z,19.50
2023-02-16T10:48:46.400Z,20.80
2023-02-16T10:52:12.940Z,21.43
2023-02-16T10:55:38.279Z,19.50
2023-02-16T10:59:06.940Z,20.40
2023-02-16T11:02:37.476Z,21.43
2023-02-16T11:06:15.105Z,20.57
2023-02-16T11:09:41.961Z,19.77
2023-02-16T11:13:05.790Z,20.23
2023-02-16T11:16:30.667Z,21.73
2023-02-16T11:19:57.251Z,19.37
2023-02-16T11:23:24.837Z,19.03
2023-02-16T11:27:02.016Z,19.40
2023-02-16T11:30:32.777Z,22.70
2023-02-16T11:33:59.533Z,21.20
2023-02-16T11:37:27.644Z,20.80
2023-02-16T11:40:53.316Z,19.73
2023-02-16T11:44:28.068Z,21.77
2023-02-16T11:47:55.776Z,19.67
2023-02-16T11:51:32.083Z,21.53
2023-02-16T11:54:58.415Z,20.90
2023-02-16T11:58:25.075Z,21.50
2023-02-16T12:02:04.476Z,23.27
2023-02-16T12:05:37.860Z,21.77
2023-02-16T12:09:14.971Z,22.20
2023-02-16T12:12:50.471Z,21.40
2023-02-16T12:16:25.829Z,22.10
2023-02-16T12:19:58.987Z,22.50
2023-02-16T12:23:34.694Z,21.30
2023-02-16T12:27:01.361Z,19.60
2023-02-16T12:30:41.183Z,20.90
2023-02-16T12:34:20.640Z,21.33
2023-02-16T12:37:57.304Z,20.80
2023-02-16T12:41:35.644Z,20.10
2023-02-16T12:45:07.080Z,21.70
2023-02-16T12:48:41.691Z,20.50
2023-02-16T12:52:14.389Z,21.40
2023-02-16T12:55:51.607Z,20.53
2023-02-16T12:59:32.389Z,20.77
2023-02-16T13:03:05.504Z,18.97
2023-02-16T13:06:40.192Z,20.77
2023-02-16T13:10:15.973Z,20.00
2023-02-16T13:13:42.603Z,19.93
2023-02-16T13:17:13.543Z,22.00
2023-02-16T13:20:42.332Z,21.80
2023-02-16T13:24:17.595Z,21.40
2023-02-16T13:27:47.677Z,18.83
2023-02-16T13:31:27.163Z,21.53
2023-02-16T13:35:08.080Z,19.40
2023-02-16T13:39:00.699Z,19.23
2023-02-16T13:43:01.286Z,21.50
2023-02-16T13:46:31.405Z,22.70
2023-02-16T13:49:59.674Z,19.67
2023-02-16T13:53:24.491Z,20.10
2023-02-16T13:56:48.108Z,19.57
2023-02-16T14:00:29.443Z,20.20
2023-02-16T14:03:54.371Z,20.00
2023-02-16T14:07:35.712Z,19.17
2023-02-16T14:11:11.670Z,19.33
2023-02-16T14:14:38.313Z,22.13
2023-02-16T14:18:20.673Z,20.67
2023-02-16T14:21:47.970Z,23.27
2023-02-16T14:25:40.627Z,20.90
2023-02-16T14:29:13.438Z,21.03
2023-02-16T14:32:39.229Z,20.90
2023-02-16T14:36:14.198Z,19.43
2023-02-16T14:40:04.117Z,20.97
2023-02-16T14:43:29.232Z,21.03
2023-02-16T14:47:05.498Z,22.87
2023-02-16T14:50:54.103Z,21.53
2023-02-16T14:54:50.369Z,21.07
2023-02-16T14:58:27.662Z,20.70
2023-02-16T15:01:52.179Z,22.30
2023-02-16T15:05:19.051Z,21.40
2023-02-16T15:08:48.953Z,22.40
2023-02-16T15:12:24.403Z,22.67
2023-02-16T15:15:52.139Z,23.50
2023-02-16T15:19:21.659Z,23.00
2023-02-16T15:22:51.095Z,23.43
2023-02-16T15:26:20.431Z,22.90
2023-02-16T15:29:43.956Z,24.33
2023-02-16T15:33:16.000Z,24.83
2023-02-16T15:36:42.146Z,24.43
2023-02-16T15:40:25.919Z,25.77
2023-02-16T15:43:51.991Z,25.30
2023-02-16T15:47:18.348Z,23.50
2023-02-16T15:50:43.541Z,22.43
2023-02-16T15:54:14.300Z,23.70
2023-02-16T15:57:39.951Z,24.67
2023-02-16T16:01:03.841Z,24.97
2023-02-16T16:04:28.569Z,24.93
2023-02-16T16:07:54.555Z,24.30
2023-02-16T16:11:18.554Z,24.93
2023-02-16T16:14:51.413Z,26.20
2023-02-16T16:18:37.486Z,23.30
2023-02-16T16:22:02.494Z,24.80
2023-02-16T16:25:38.274Z,24.33
2023-02-16T16:29:02.271Z,22.23
2023-02-16T16:32:28.659Z,22.97
2023-02-16T16:35:52.441Z,24.40
2023-02-16T16:39:25.495Z,25.93
2023-02-16T16:43:09.632Z,24.60
2023-02-16T16:46:33.688Z,24.50
2023-02-16T16:49:59.696Z,23.40
2023-02-16T16:53:53.732Z,25.03
2023-02-16T16:57:19.586Z,26.27
2023-02-16T17:00:44.525Z,25.60
2023-02-16T17:04:08.214Z,24.67
2023-02-16T17:07:33.092Z,25.97
2023-02-16T17:10:56.821Z,25.07
2023-02-16T17:14:21.498Z,23.23
2023-02-16T17:17:46.578Z,25.70
2023-02-16T17:21:13.267Z,24.77
2023-02-16T17:24:36.806Z,26.50
2023-02-16T17:28:00.509Z,25.93
2023-02-16T17:31:24.144Z,24.23
2023-02-16T17:34:49.063Z,25.07
2023-02-16T17:38:18.063Z,25.93
2023-02-16T17:41:41.791Z,26.93
2023-02-16T17:45:05.982Z,25.23
2023-02-16T17:48:31.408Z,25.60
2023-02-16T17:51:57.019Z,25.37
2023-02-16T17:55:20.731Z,24.97
2023-02-16T17:58:44.962Z,23.27
2023-02-16T18:02:09.956Z,24.33
2023-02-16T18:05:35.318Z,24.80
2023-02-16T18:09:00.222Z,24.67
2023-02-16T18:12:23.892Z,22.10
2023-02-16T18:15:49.082Z,24.00
2023-02-16T18:19:15.663Z,24.63
2023-02-16T18:22:44.807Z,23.37
2023-02-16T18:26:14.190Z,25.30
2023-02-16T18:29:37.751Z,24.30
2023-02-16T18:33:01.390Z,23.40
2023-02-16T18:36:24.958Z,24.90
2023-02-16T18:39:48.599Z,23.53
2023-02-16T18:43:13.767Z,25.30
2023-02-16T18:46:37.504Z,22.00
2023-02-16T18:50:01.105Z,23.40
2023-02-16T18:53:24.696Z,21.60
2023-02-16T18:56:48.504Z,21.40
2023-02-16T19:00:15.168Z,22.90
2023-02-16T19:03:38.851Z,23.77
2023-02-16T19:07:02.426Z,22.53
2023-02-16T19:10:26.232Z,20.20
2023-02-16T19:13:50.478Z,22.20
2023-02-16T19:17:15.386Z,21.87
2023-02-16T19:20:38.956Z,20.50
2023-02-16T19:24:02.624Z,19.10
2023-02-16T19:27:26.159Z,20.00
2023-02-16T19:30:50.284Z,20.17
2023-02-16T19:34:15.235Z,19.43
2023-02-16T19:37:38.837Z,22.90
2023-02-16T19:41:02.797Z,23.77
2023-02-16T19:44:26.434Z,20.97
2023-02-16T19:47:51.516Z,19.90
2023-02-16T19:51:16.674Z,21.60
2023-02-16T19:54:40.211Z,21.17
2023-02-16T19:58:06.206Z,22.43
2023-02-16T20:01:30.156Z,21.87
2023-02-16T20:04:55.120Z,22.13
2023-02-16T20:08:20.504Z,20.90
2023-02-16T20:11:44.113Z,21.30
2023-02-16T20:15:08.290Z,19.40
2023-02-16T20:18:32.215Z,21.77
2023-02-16T20:21:55.781Z,23.00
2023-02-16T20:25:20.963Z,20.27
2023-02-16T20:28:44.518Z,20.00
2023-02-16T20:32:08.144Z,20.07
2023-02-16T20:35:31.705Z,19.97
2023-02-16T20:38:55.536Z,18.67
2023-02-16T20:42:20.407Z,17.70
2023-02-16T20:45:44.023Z,17.37
2023-02-16T20:49:08.154Z,17.33
2023-02-16T20:52:31.721Z,17.30
2023-02-16T20:56:02.502Z,19.97
2023-02-16T20:59:28.535Z,18.30
2023-02-16T21:02:53.199Z,21.10
2023-02-16T21:06:17.317Z,17.67
2023-02-16T21:09:41.276Z,18.20
2023-02-16T21:13:04.908Z,18.40
2023-02-16T21:16:31.761Z,17.03
2023-02-16T21:19:55.406Z,19.40
2023-02-16T21:23:19.100Z,20.53
2023-02-16T21:26:42.642Z,18.47
2023-02-16T21:30:07.546Z,18.30
2023-02-16T21:33:33.168Z,19.30
2023-02-16T21:36:56.913Z,20.20
2023-02-16T21:40:40.665Z,20.40
2023-02-16T21:44:06.939Z,20.50
2023-02-16T21:47:48.103Z,20.87
2023-02-16T21:51:13.698Z,22.20
2023-02-16T21:54:53.955Z,23.27
2023-02-16T21:58:17.604Z,23.37
2023-02-16T22:01:43.135Z,24.17
2023-02-16T22:05:07.200Z,22.27
2023-02-16T22:08:37.799Z,23.17
2023-02-16T22:12:01.594Z,21.60
2023-02-16T22:15:25.900Z,25.50
2023-02-16T22:18:49.979Z,23.70
2023-02-16T22:22:13.488Z,23.27
2023-02-16T22:25:41.138Z,22.57
2023-02-16T22:29:06.601Z,22.27
2023-02-16T22:32:30.711Z,23.10
2023-02-16T22:35:54.336Z,22.60
2023-02-16T22:39:19.378Z,22.10
2023-02-16T22:42:44.334Z,21.13
2023-02-16T22:46:10.152Z,22.50
2023-02-16T22:49:33.791Z,22.07
2023-02-16T22:52:57.336Z,22.03
2023-02-16T22:56:20.989Z,23.10
2023-02-16T22:59:46.298Z,23.40
2023-02-16T23:03:09.838Z,23.07
2023-02-16T23:06:35.213Z,21.73
2023-02-16T23:09:58.898Z,23.60
2023-02-16T23:13:22.503Z,22.40
2023-02-16T23:16:49.527Z,22.10
2023-02-16T23:20:13.270Z,21.70
2023-02-16T23:23:37.159Z,24.23
2023-02-16T23:27:00.800Z,25.63
2023-02-16T23:30:24.401Z,26.47
2023-02-16T23:33:49.716Z,25.27
2023-02-16T23:37:13.292Z,22.80
2023-02-16T23:40:36.786Z,23.70
2023-02-16T23:44:01.298Z,23.33
2023-02-16T23:47:25.709Z,23.40
2023-02-16T23:50:51.980Z,24.43
2023-02-16T23:54:16.490Z,22.40
2023-02-16T23:57:40.522Z,23.70
